sensor_id;sensor_type;location;lat;lon;timestamp;pressure;altitude;pressure_sealevel;temperature;humidity
80198;BME280;69517;52.030;7.106;2023-12-22T00:00:19;98984.56;;;21.29;70.32
80198;BME280;69517;52.030;7.106;2023-12-22T00:02:46;98981.28;;;21.27;70.50
80198;BME280;69517;52.030;7.106;2023-12-22T00:05:12;98984.72;;;21.27;70.44
80198;BME280;69517;52.030;7.106;2023-12-22T00:07:41;98976.97;;;21.26;70.49
80198;BME280;69517;52.030;7.106;2023-12-22T00:10:11;98967.44;;;21.25;70.19
80198;BME280;69517;52.030;7.106;2023-12-22T00:12:37;98976.28;;;21.24;70.42
80198;BME280;69517;52.030;7.106;2023-12-22T00:15:04;98978.09;;;21.23;70.49
80198;BME280;69517;52.030;7.106;2023-12-22T00:17:31;98986.97;;;21.22;70.31
80198;BME280;69517;52.030;7.106;2023-12-22T00:19:57;98980.63;;;21.15;70.74
80198;BME280;69517;52.030;7.106;2023-12-22T00:22:27;98984.09;;;21.16;70.71
80198;BME280;69517;52.030;7.106;2023-12-22T00:24:54;99005.78;;;21.18;70.57
80198;BME280;69517;52.030;7.106;2023-12-22T00:27:21;99007.44;;;21.19;70.40
80198;BME280;69517;52.030;7.106;2023-12-22T00:29:48;99006.91;;;21.15;70.78
80198;BME280;69517;52.030;7.106;2023-12-22T00:32:14;98996.41;;;21.15;70.81
80198;BME280;69517;52.030;7.106;2023-12-22T00:34:40;98999.03;;;21.15;70.83
80198;BME280;69517;52.030;7.106;2023-12-22T00:37:06;98997.34;;;21.14;70.79
80198;BME280;69517;52.030;7.106;2023-12-22T00:39:33;99005.22;;;21.14;70.90
80198;BME280;69517;52.030;7.106;2023-12-22T00:41:59;99012.41;;;21.12;70.98
80198;BME280;69517;52.030;7.106;2023-12-22T00:44:27;99013.13;;;21.14;70.89
80198;BME280;69517;52.030;7.106;2023-12-22T00:46:54;99014.81;;;21.15;70.82
80198;BME280;69517;52.030;7.106;2023-12-22T00:49:21;99021.00;;;21.14;70.85
80198;BME280;69517;52.030;7.106;2023-12-22T00:51:47;99031.50;;;21.14;70.92
80198;BME280;69517;52.030;7.106;2023-12-22T00:54:14;99028.19;;;21.12;70.95
80198;BME280;69517;52.030;7.106;2023-12-22T00:56:40;99041.91;;;21.06;71.28
80198;BME280;69517;52.030;7.106;2023-12-22T00:59:06;99038.44;;;21.05;71.36
80198;BME280;69517;52.030;7.106;2023-12-22T01:01:34;99041.78;;;21.08;71.20
80198;BME280;69517;52.030;7.106;2023-12-22T01:04:00;99045.38;;;21.06;71.28
80198;BME280;69517;52.030;7.106;2023-12-22T01:06:26;99032.38;;;21.05;71.25
80198;BME280;69517;52.030;7.106;2023-12-22T01:08:52;99027.81;;;21.07;71.06
80198;BME280;69517;52.030;7.106;2023-12-22T01:11:19;99024.47;;;21.05;71.16
80198;BME280;69517;52.030;7.106;2023-12-22T01:13:45;99027.94;;;21.05;71.26
80198;BME280;69517;52.030;7.106;2023-12-22T01:16:11;99042.03;;;21.04;71.24
80198;BME280;69517;52.030;7.106;2023-12-22T01:18:39;99044.97;;;21.01;71.41
80198;BME280;69517;52.030;7.106;2023-12-22T01:21:07;99036.94;;;21.03;71.29
80198;BME280;69517;52.030;7.106;2023-12-22T01:23:33;99031.00;;;21.01;71.31
80198;BME280;69517;52.030;7.106;2023-12-22T01:26:01;99045.66;;;21.03;71.37
80198;BME280;69517;52.030;7.106;2023-12-22T01:28:27;99041.66;;;20.99;71.44
80198;BME280;69517;52.030;7.106;2023-12-22T01:30:53;99044.13;;;21.01;71.35
80198;BME280;69517;52.030;7.106;2023-12-22T01:33:20;99059.22;;;20.99;71.37
80198;BME280;69517;52.030;7.106;2023-12-22T01:35:47;99038.88;;;21.01;71.27
80198;BME280;69517;52.030;7.106;2023-12-22T01:38:13;99041.66;;;20.99;71.18
80198;BME280;69517;52.030;7.106;2023-12-22T01:40:40;99045.25;;;20.98;71.20
80198;BME280;69517;52.030;7.106;2023-12-22T01:43:06;99062.84;;;20.98;71.21
80198;BME280;69517;52.030;7.106;2023-12-22T01:45:32;99064.75;;;20.96;71.19
80198;BME280;69517;52.030;7.106;2023-12-22T01:47:58;99061.31;;;20.95;71.21
80198;BME280;69517;52.030;7.106;2023-12-22T01:50:25;99054.38;;;20.94;71.14
80198;BME280;69517;52.030;7.106;2023-12-22T01:52:53;99066.69;;;20.94;71.15
80198;BME280;69517;52.030;7.106;2023-12-22T01:55:20;99069.47;;;20.92;70.88
80198;BME280;69517;52.030;7.106;2023-12-22T01:57:46;99061.75;;;20.91;71.27
80198;BME280;69517;52.030;7.106;2023-12-22T02:00:13;99070.59;;;20.90;71.17
80198;BME280;69517;52.030;7.106;2023-12-22T02:02:40;99068.66;;;20.92;71.14
80198;BME280;69517;52.030;7.106;2023-12-22T02:05:07;99074.88;;;20.91;71.11
80198;BME280;69517;52.030;7.106;2023-12-22T02:07:36;99077.50;;;20.91;71.16
80198;BME280;69517;52.030;7.106;2023-12-22T02:10:05;99074.06;;;20.90;71.02
80198;BME280;69517;52.030;7.106;2023-12-22T02:12:31;99064.50;;;20.89;71.22
80198;BME280;69517;52.030;7.106;2023-12-22T02:14:58;99062.97;;;20.87;71.30
80198;BME280;69517;52.030;7.106;2023-12-22T02:17:25;99075.16;;;20.88;71.06
80198;BME280;69517;52.030;7.106;2023-12-22T02:19:52;99076.94;;;20.87;71.07
80198;BME280;69517;52.030;7.106;2023-12-22T02:22:20;99085.78;;;20.86;70.97
80198;BME280;69517;52.030;7.106;2023-12-22T02:24:48;99085.00;;;20.86;70.96
80198;BME280;69517;52.030;7.106;2023-12-22T02:27:17;99083.31;;;20.85;70.90
80198;BME280;69517;52.030;7.106;2023-12-22T02:29:54;99076.41;;;20.84;71.02
80198;BME280;69517;52.030;7.106;2023-12-22T02:32:25;99073.78;;;20.84;70.93
80198;BME280;69517;52.030;7.106;2023-12-22T02:34:53;99089.69;;;20.82;71.09
80198;BME280;69517;52.030;7.106;2023-12-22T02:37:21;99090.50;;;20.83;70.99
80198;BME280;69517;52.030;7.106;2023-12-22T02:39:49;99086.22;;;20.82;70.97
80198;BME280;69517;52.030;7.106;2023-12-22T02:42:16;99070.59;;;20.80;70.85
80198;BME280;69517;52.030;7.106;2023-12-22T02:44:43;99075.06;;;20.80;70.97
80198;BME280;69517;52.030;7.106;2023-12-22T02:47:09;99091.78;;;20.79;70.97
80198;BME280;69517;52.030;7.106;2023-12-22T02:49:36;99076.97;;;20.78;70.93
80198;BME280;69517;52.030;7.106;2023-12-22T02:52:02;99094.66;;;20.76;71.10
80198;BME280;69517;52.030;7.106;2023-12-22T02:54:28;99096.31;;;20.77;70.86
80198;BME280;69517;52.030;7.106;2023-12-22T02:56:58;99098.13;;;20.76;71.05
80198;BME280;69517;52.030;7.106;2023-12-22T02:59:25;99091.38;;;20.74;70.92
80198;BME280;69517;52.030;7.106;2023-12-22T03:01:52;99082.50;;;20.75;70.83
80198;BME280;69517;52.030;7.106;2023-12-22T03:04:18;99079.22;;;20.73;71.05
80198;BME280;69517;52.030;7.106;2023-12-22T03:06:45;99074.78;;;20.73;71.00
80198;BME280;69517;52.030;7.106;2023-12-22T03:09:11;99060.94;;;20.71;70.91
80198;BME280;69517;52.030;7.106;2023-12-22T03:11:37;99081.13;;;20.71;70.97
80198;BME280;69517;52.030;7.106;2023-12-22T03:14:05;99075.75;;;20.72;70.95
80198;BME280;69517;52.030;7.106;2023-12-22T03:16:31;99068.97;;;20.70;70.88
80198;BME280;69517;52.030;7.106;2023-12-22T03:18:57;99070.91;;;20.67;70.96
80198;BME280;69517;52.030;7.106;2023-12-22T03:21:24;99065.66;;;20.67;70.98
80198;BME280;69517;52.030;7.106;2023-12-22T03:23:50;99066.63;;;20.67;71.10
80198;BME280;69517;52.030;7.106;2023-12-22T03:26:16;99077.81;;;20.69;70.95
80198;BME280;69517;52.030;7.106;2023-12-22T03:28:43;99075.19;;;20.69;70.80
80198;BME280;69517;52.030;7.106;2023-12-22T03:31:10;99078.78;;;20.67;70.96
80198;BME280;69517;52.030;7.106;2023-12-22T03:33:36;99085.84;;;20.67;70.94
80198;BME280;69517;52.030;7.106;2023-12-22T03:36:03;99074.50;;;20.67;70.77
80198;BME280;69517;52.030;7.106;2023-12-22T03:38:29;99080.88;;;20.64;70.93
80198;BME280;69517;52.030;7.106;2023-12-22T03:40:55;99076.44;;;20.64;70.92
80198;BME280;69517;52.030;7.106;2023-12-22T03:43:22;99087.78;;;20.65;70.70
80198;BME280;69517;52.030;7.106;2023-12-22T03:45:48;99072.03;;;20.65;70.82
80198;BME280;69517;52.030;7.106;2023-12-22T03:48:16;99072.16;;;20.63;70.80
80198;BME280;69517;52.030;7.106;2023-12-22T03:50:42;99065.25;;;20.62;70.88
80198;BME280;69517;52.030;7.106;2023-12-22T03:53:08;99069.53;;;20.63;70.82
80198;BME280;69517;52.030;7.106;2023-12-22T03:55:34;99069.00;;;20.60;70.79
80198;BME280;69517;52.030;7.106;2023-12-22T03:58:01;99075.06;;;20.60;70.74
80198;BME280;69517;52.030;7.106;2023-12-22T04:00:28;99074.25;;;20.60;70.74
80198;BME280;69517;52.030;7.106;2023-12-22T04:02:54;99074.09;;;20.61;70.82
80198;BME280;69517;52.030;7.106;2023-12-22T04:05:22;99073.94;;;20.63;70.78
80198;BME280;69517;52.030;7.106;2023-12-22T04:07:49;99064.00;;;20.67;70.83
80198;BME280;69517;52.030;7.106;2023-12-22T04:10:16;99080.16;;;20.72;70.50
80198;BME280;69517;52.030;7.106;2023-12-22T04:12:42;99077.25;;;20.75;70.46
80198;BME280;69517;52.030;7.106;2023-12-22T04:15:08;99091.06;;;20.77;70.36
80198;BME280;69517;52.030;7.106;2023-12-22T04:17:35;99099.78;;;20.77;70.28
80198;BME280;69517;52.030;7.106;2023-12-22T04:20:01;99095.38;;;20.78;70.30
80198;BME280;69517;52.030;7.106;2023-12-22T04:22:28;99099.34;;;20.82;70.23
80198;BME280;69517;52.030;7.106;2023-12-22T04:24:55;99093.13;;;20.83;70.16
80198;BME280;69517;52.030;7.106;2023-12-22T04:27:21;99109.59;;;20.85;70.07
80198;BME280;69517;52.030;7.106;2023-12-22T04:29:47;99101.72;;;20.85;70.09
80198;BME280;69517;52.030;7.106;2023-12-22T04:32:13;99102.53;;;20.85;70.11
80198;BME280;69517;52.030;7.106;2023-12-22T04:34:40;99103.22;;;20.87;69.94
80198;BME280;69517;52.030;7.106;2023-12-22T04:37:06;99095.19;;;20.89;69.95
80198;BME280;69517;52.030;7.106;2023-12-22T04:39:34;99089.13;;;20.88;69.89
80198;BME280;69517;52.030;7.106;2023-12-22T04:42:00;99095.06;;;20.90;69.92
80198;BME280;69517;52.030;7.106;2023-12-22T04:44:26;99100.97;;;20.92;69.81
80198;BME280;69517;52.030;7.106;2023-12-22T04:46:52;99103.47;;;20.94;69.83
80198;BME280;69517;52.030;7.106;2023-12-22T04:49:19;99100.72;;;20.95;69.84
80198;BME280;69517;52.030;7.106;2023-12-22T04:51:45;99101.53;;;20.96;69.81
80198;BME280;69517;52.030;7.106;2023-12-22T04:54:11;99105.84;;;20.97;69.85
80198;BME280;69517;52.030;7.106;2023-12-22T04:56:39;99102.25;;;20.98;69.91
80198;BME280;69517;52.030;7.106;2023-12-22T04:59:05;99114.38;;;20.99;69.84
80198;BME280;69517;52.030;7.106;2023-12-22T05:01:31;99118.69;;;21.00;69.90
80198;BME280;69517;52.030;7.106;2023-12-22T05:03:57;99116.75;;;21.02;69.82
80198;BME280;69517;52.030;7.106;2023-12-22T05:06:24;99133.34;;;21.02;69.80
80198;BME280;69517;52.030;7.106;2023-12-22T05:08:50;99116.75;;;21.02;69.84
80198;BME280;69517;52.030;7.106;2023-12-22T05:11:16;99127.94;;;21.04;69.83
80198;BME280;69517;52.030;7.106;2023-12-22T05:13:44;99141.09;;;21.04;69.85
80198;BME280;69517;52.030;7.106;2023-12-22T05:16:10;99130.41;;;21.05;69.72
80198;BME280;69517;52.030;7.106;2023-12-22T05:18:37;99139.13;;;21.06;69.72
80198;BME280;69517;52.030;7.106;2023-12-22T05:21:03;99133.22;;;21.04;69.72
80198;BME280;69517;52.030;7.106;2023-12-22T05:23:29;99136.50;;;21.06;69.76
80198;BME280;69517;52.030;7.106;2023-12-22T05:25:56;99143.41;;;21.07;69.71
80198;BME280;69517;52.030;7.106;2023-12-22T05:28:22;99138.16;;;21.07;69.74
80198;BME280;69517;52.030;7.106;2023-12-22T05:30:50;99142.44;;;21.08;69.79
80198;BME280;69517;52.030;7.106;2023-12-22T05:33:16;99143.41;;;21.07;69.76
80198;BME280;69517;52.030;7.106;2023-12-22T05:35:42;99164.31;;;21.09;69.76
80198;BME280;69517;52.030;7.106;2023-12-22T05:38:08;99160.72;;;21.10;69.74
80198;BME280;69517;52.030;7.106;2023-12-22T05:40:35;99164.19;;;21.10;69.72
80198;BME280;69517;52.030;7.106;2023-12-22T05:43:01;99158.09;;;21.10;69.67
80198;BME280;69517;52.030;7.106;2023-12-22T05:45:27;99167.59;;;21.11;69.78
80198;BME280;69517;52.030;7.106;2023-12-22T05:47:55;99173.69;;;21.11;69.74
80198;BME280;69517;52.030;7.106;2023-12-22T05:50:21;99177.16;;;21.12;69.67
80198;BME280;69517;52.030;7.106;2023-12-22T05:52:47;99167.59;;;21.11;69.70
80198;BME280;69517;52.030;7.106;2023-12-22T05:55:14;99162.50;;;21.09;69.68
80198;BME280;69517;52.030;7.106;2023-12-22T05:57:40;99175.47;;;21.11;69.71
80198;BME280;69517;52.030;7.106;2023-12-22T06:00:07;99171.06;;;21.11;69.66
80198;BME280;69517;52.030;7.106;2023-12-22T06:02:35;99174.53;;;21.12;69.72
80198;BME280;69517;52.030;7.106;2023-12-22T06:05:02;99187.66;;;21.12;69.64
80198;BME280;69517;52.030;7.106;2023-12-22T06:07:29;99179.78;;;21.12;69.70
80198;BME280;69517;52.030;7.106;2023-12-22T06:09:55;99165.66;;;21.13;69.63
80198;BME280;69517;52.030;7.106;2023-12-22T06:12:21;99170.09;;;21.12;69.66
80198;BME280;69517;52.030;7.106;2023-12-22T06:14:48;99161.38;;;21.12;69.68
80198;BME280;69517;52.030;7.106;2023-12-22T06:17:14;99167.47;;;21.12;69.70
80198;BME280;69517;52.030;7.106;2023-12-22T06:19:40;99171.88;;;21.12;69.73
80198;BME280;69517;52.030;7.106;2023-12-22T06:22:08;99178.56;;;21.16;69.63
80198;BME280;69517;52.030;7.106;2023-12-22T06:24:34;99181.16;;;21.25;69.36
80198;BME280;69517;52.030;7.106;2023-12-22T06:27:00;99165.91;;;21.38;68.99
80198;BME280;69517;52.030;7.106;2023-12-22T06:29:27;99181.66;;;21.48;68.60
80198;BME280;69517;52.030;7.106;2023-12-22T06:31:53;99184.97;;;21.50;68.54
80198;BME280;69517;52.030;7.106;2023-12-22T06:34:19;99189.53;;;21.58;68.08
80198;BME280;69517;52.030;7.106;2023-12-22T06:36:45;99182.72;;;21.65;67.67
80198;BME280;69517;52.030;7.106;2023-12-22T06:39:13;99190.31;;;21.68;67.53
80198;BME280;69517;52.030;7.106;2023-12-22T06:41:39;99189.34;;;21.69;67.54
80198;BME280;69517;52.030;7.106;2023-12-22T06:44:06;99182.94;;;21.71;67.50
80198;BME280;69517;52.030;7.106;2023-12-22T06:46:32;99189.47;;;21.77;67.37
80198;BME280;69517;52.030;7.106;2023-12-22T06:48:59;99196.25;;;21.70;67.64
80198;BME280;69517;52.030;7.106;2023-12-22T06:51:25;99197.34;;;21.77;67.46
80198;BME280;69517;52.030;7.106;2023-12-22T06:53:52;99182.22;;;21.79;67.40
80198;BME280;69517;52.030;7.106;2023-12-22T06:56:21;99185.41;;;21.82;67.38
80198;BME280;69517;52.030;7.106;2023-12-22T06:58:49;99187.63;;;21.77;67.63
80198;BME280;69517;52.030;7.106;2023-12-22T07:01:19;99178.63;;;21.80;67.59
80198;BME280;69517;52.030;7.106;2023-12-22T07:03:46;99192.31;;;21.83;67.63
80198;BME280;69517;52.030;7.106;2023-12-22T07:06:13;99189.53;;;21.85;67.51
80198;BME280;69517;52.030;7.106;2023-12-22T07:08:39;99187.03;;;21.83;67.67
80198;BME280;69517;52.030;7.106;2023-12-22T07:11:05;99180.81;;;21.84;67.66
80198;BME280;69517;52.030;7.106;2023-12-22T07:13:33;99196.47;;;21.86;67.78
80198;BME280;69517;52.030;7.106;2023-12-22T07:16:00;99204.34;;;21.86;67.71
80198;BME280;69517;52.030;7.106;2023-12-22T07:18:27;99221.94;;;21.85;67.79
80198;BME280;69517;52.030;7.106;2023-12-22T07:20:55;99221.09;;;21.85;67.90
80198;BME280;69517;52.030;7.106;2023-12-22T07:23:21;99215.97;;;21.83;67.97
80198;BME280;69517;52.030;7.106;2023-12-22T07:25:47;99210.59;;;21.85;67.91
80198;BME280;69517;52.030;7.106;2023-12-22T07:28:14;99209.75;;;21.84;67.93
80198;BME280;69517;52.030;7.106;2023-12-22T07:30:41;99213.22;;;21.85;67.95
80198;BME280;69517;52.030;7.106;2023-12-22T07:33:08;99220.03;;;21.78;68.16
80198;BME280;69517;52.030;7.106;2023-12-22T07:35:34;99211.22;;;20.15;59.93
80198;BME280;69517;52.030;7.106;2023-12-22T07:38:00;99205.41;;;19.21;61.65
80198;BME280;69517;52.030;7.106;2023-12-22T07:40:27;99209.09;;;18.54;60.82
80198;BME280;69517;52.030;7.106;2023-12-22T07:42:55;99209.91;;;18.12;59.68
80198;BME280;69517;52.030;7.106;2023-12-22T07:45:21;99229.25;;;17.42;58.93
80198;BME280;69517;52.030;7.106;2023-12-22T07:47:49;99225.75;;;17.77;58.74
80198;BME280;69517;52.030;7.106;2023-12-22T07:50:15;99234.50;;;18.32;57.16
80198;BME280;69517;52.030;7.106;2023-12-22T07:52:41;99228.69;;;19.03;57.67
80198;BME280;69517;52.030;7.106;2023-12-22T07:55:09;99227.13;;;19.83;56.90
80198;BME280;69517;52.030;7.106;2023-12-22T07:57:35;99225.81;;;20.39;56.29
80198;BME280;69517;52.030;7.106;2023-12-22T08:00:02;99226.94;;;20.75;56.03
80198;BME280;69517;52.030;7.106;2023-12-22T08:02:28;99230.41;;;20.94;55.89
80198;BME280;69517;52.030;7.106;2023-12-22T08:04:56;99245.91;;;21.07;56.20
80198;BME280;69517;52.030;7.106;2023-12-22T08:07:23;99250.91;;;21.20;56.27
80198;BME280;69517;52.030;7.106;2023-12-22T08:09:49;99255.59;;;21.26;56.51
80198;BME280;69517;52.030;7.106;2023-12-22T08:12:15;99265.28;;;21.25;56.98
80198;BME280;69517;52.030;7.106;2023-12-22T08:14:41;99245.34;;;21.23;57.50
80198;BME280;69517;52.030;7.106;2023-12-22T08:17:08;99244.69;;;21.21;58.16
80198;BME280;69517;52.030;7.106;2023-12-22T08:19:35;99246.34;;;21.22;58.46
80198;BME280;69517;52.030;7.106;2023-12-22T08:22:03;99242.88;;;21.21;59.04
80198;BME280;69517;52.030;7.106;2023-12-22T08:24:30;99241.75;;;21.33;59.10
80198;BME280;69517;52.030;7.106;2023-12-22T08:26:56;99243.00;;;21.39;59.30
80198;BME280;69517;52.030;7.106;2023-12-22T08:29:22;99238.66;;;21.48;59.36
80198;BME280;69517;52.030;7.106;2023-12-22T08:31:49;99251.81;;;21.48;59.67
80198;BME280;69517;52.030;7.106;2023-12-22T08:34:15;99245.59;;;21.49;60.12
80198;BME280;69517;52.030;7.106;2023-12-22T08:36:41;99253.91;;;21.44;60.47
80198;BME280;69517;52.030;7.106;2023-12-22T08:39:09;99252.13;;;21.44;60.66
80198;BME280;69517;52.030;7.106;2023-12-22T08:41:35;99262.06;;;21.51;60.86
80198;BME280;69517;52.030;7.106;2023-12-22T08:44:02;99262.75;;;21.53;61.59
80198;BME280;69517;52.030;7.106;2023-12-22T08:46:28;99261.50;;;21.57;62.14
80198;BME280;69517;52.030;7.106;2023-12-22T08:48:55;99258.72;;;21.58;62.07
80198;BME280;69517;52.030;7.106;2023-12-22T08:51:22;99254.88;;;21.53;62.62
80198;BME280;69517;52.030;7.106;2023-12-22T08:53:48;99256.09;;;21.49;62.76
80198;BME280;69517;52.030;7.106;2023-12-22T08:56:16;99248.22;;;21.49;62.81
80198;BME280;69517;52.030;7.106;2023-12-22T08:58:42;99230.50;;;21.51;62.82
80198;BME280;69517;52.030;7.106;2023-12-22T09:01:13;99220.44;;;21.46;63.17
80198;BME280;69517;52.030;7.106;2023-12-22T09:03:40;99239.38;;;21.50;63.11
80198;BME280;69517;52.030;7.106;2023-12-22T09:06:10;99215.00;;;21.57;62.94
80198;BME280;69517;52.030;7.106;2023-12-22T09:08:38;99215.44;;;21.53;63.09
80198;BME280;69517;52.030;7.106;2023-12-22T09:11:04;99213.78;;;21.52;63.41
80198;BME280;69517;52.030;7.106;2023-12-22T09:13:32;99217.38;;;21.51;63.39
80198;BME280;69517;52.030;7.106;2023-12-22T09:15:58;99213.66;;;21.43;63.70
80198;BME280;69517;52.030;7.106;2023-12-22T09:18:24;99217.94;;;21.44;63.93
80198;BME280;69517;52.030;7.106;2023-12-22T09:20:50;99214.34;;;21.45;64.00
80198;BME280;69517;52.030;7.106;2023-12-22T09:23:17;99222.88;;;21.48;63.75
80198;BME280;69517;52.030;7.106;2023-12-22T09:25:43;99215.00;;;21.48;63.91
80198;BME280;69517;52.030;7.106;2023-12-22T09:28:10;99206.16;;;21.49;64.01
80198;BME280;69517;52.030;7.106;2023-12-22T09:30:38;99204.50;;;21.48;64.06
80198;BME280;69517;52.030;7.106;2023-12-22T09:33:04;99200.22;;;21.47;64.18
80198;BME280;69517;52.030;7.106;2023-12-22T09:35:30;99214.47;;;21.44;64.33
80198;BME280;69517;52.030;7.106;2023-12-22T09:37:56;99201.19;;;21.45;64.45
80198;BME280;69517;52.030;7.106;2023-12-22T09:40:23;99183.06;;;21.42;64.69
80198;BME280;69517;52.030;7.106;2023-12-22T09:42:50;99178.09;;;21.39;64.48
80198;BME280;69517;52.030;7.106;2023-12-22T09:45:17;99184.72;;;21.43;64.41
80198;BME280;69517;52.030;7.106;2023-12-22T09:47:45;99189.72;;;21.47;64.17
80198;BME280;69517;52.030;7.106;2023-12-22T09:50:12;99191.06;;;21.51;64.33
80198;BME280;69517;52.030;7.106;2023-12-22T09:52:39;99199.78;;;21.51;64.44
80198;BME280;69517;52.030;7.106;2023-12-22T09:55:06;99194.53;;;21.51;64.45
80198;BME280;69517;52.030;7.106;2023-12-22T09:57:33;99203.09;;;21.53;64.65
80198;BME280;69517;52.030;7.106;2023-12-22T09:59:59;99215.44;;;21.53;64.91
80198;BME280;69517;52.030;7.106;2023-12-22T10:02:27;99218.72;;;21.55;64.95
80198;BME280;69517;52.030;7.106;2023-12-22T10:04:55;99212.63;;;21.54;65.19
80198;BME280;69517;52.030;7.106;2023-12-22T10:07:21;99209.03;;;21.55;65.31
80198;BME280;69517;52.030;7.106;2023-12-22T10:09:48;99217.50;;;21.59;65.24
80198;BME280;69517;52.030;7.106;2023-12-22T10:12:15;99212.22;;;21.59;65.47
80198;BME280;69517;52.030;7.106;2023-12-22T10:14:42;99196.97;;;21.62;65.45
80198;BME280;69517;52.030;7.106;2023-12-22T10:17:09;99188.25;;;21.62;65.60
80198;BME280;69517;52.030;7.106;2023-12-22T10:19:35;99184.66;;;21.63;65.71
80198;BME280;69517;52.030;7.106;2023-12-22T10:22:03;99176.63;;;21.64;65.58
80198;BME280;69517;52.030;7.106;2023-12-22T10:24:38;99180.22;;;21.63;65.64
80198;BME280;69517;52.030;7.106;2023-12-22T10:27:07;99172.19;;;21.65;65.93
80198;BME280;69517;52.030;7.106;2023-12-22T10:29:33;99166.94;;;21.65;65.86
80198;BME280;69517;52.030;7.106;2023-12-22T10:32:01;99155.59;;;21.64;66.05
80198;BME280;69517;52.030;7.106;2023-12-22T10:34:27;99162.66;;;21.64;66.15
80198;BME280;69517;52.030;7.106;2023-12-22T10:36:54;99167.91;;;21.64;66.07
80198;BME280;69517;52.030;7.106;2023-12-22T10:39:21;99150.91;;;21.58;66.39
80198;BME280;69517;52.030;7.106;2023-12-22T10:41:48;99139.56;;;21.58;66.50
80198;BME280;69517;52.030;7.106;2023-12-22T10:44:15;99144.50;;;21.61;66.36
80198;BME280;69517;52.030;7.106;2023-12-22T10:46:42;99172.91;;;21.57;66.54
80198;BME280;69517;52.030;7.106;2023-12-22T10:49:08;99191.59;;;21.54;66.49
80198;BME280;69517;52.030;7.106;2023-12-22T10:51:35;99182.59;;;21.57;66.54
80198;BME280;69517;52.030;7.106;2023-12-22T10:54:01;99191.19;;;21.59;66.67
80198;BME280;69517;52.030;7.106;2023-12-22T10:56:31;99191.19;;;21.59;66.66
80198;BME280;69517;52.030;7.106;2023-12-22T10:58:57;99174.72;;;21.57;66.95
80198;BME280;69517;52.030;7.106;2023-12-22T11:01:25;99179.16;;;21.56;67.11
80198;BME280;69517;52.030;7.106;2023-12-22T11:03:54;99191.59;;;21.54;67.25
80198;BME280;69517;52.030;7.106;2023-12-22T11:06:23;99185.13;;;21.49;67.27
80198;BME280;69517;52.030;7.106;2023-12-22T11:08:51;99188.03;;;21.45;67.22
80198;BME280;69517;52.030;7.106;2023-12-22T11:11:20;99178.34;;;21.46;67.19
80198;BME280;69517;52.030;7.106;2023-12-22T11:13:55;99158.28;;;21.45;66.88
80198;BME280;69517;52.030;7.106;2023-12-22T11:16:22;99132.66;;;21.47;66.87
80198;BME280;69517;52.030;7.106;2023-12-22T11:18:50;99145.00;;;21.47;66.73
80198;BME280;69517;52.030;7.106;2023-12-22T11:21:19;99150.09;;;21.48;66.52
80198;BME280;69517;52.030;7.106;2023-12-22T11:23:46;99143.88;;;21.49;66.58
80198;BME280;69517;52.030;7.106;2023-12-22T11:26:14;99149.13;;;21.49;66.44
80198;BME280;69517;52.030;7.106;2023-12-22T11:28:42;99155.22;;;21.50;66.44
80198;BME280;69517;52.030;7.106;2023-12-22T11:31:10;99161.31;;;21.50;66.36
80198;BME280;69517;52.030;7.106;2023-12-22T11:33:38;99160.34;;;21.51;66.35
80198;BME280;69517;52.030;7.106;2023-12-22T11:36:06;99158.81;;;21.49;66.84
80198;BME280;69517;52.030;7.106;2023-12-22T11:38:32;99158.44;;;21.43;66.56
80198;BME280;69517;52.030;7.106;2023-12-22T11:40:59;99145.41;;;21.42;66.47
80198;BME280;69517;52.030;7.106;2023-12-22T11:43:25;99149.84;;;21.41;66.33
80198;BME280;69517;52.030;7.106;2023-12-22T11:45:52;99151.63;;;21.41;66.29
80198;BME280;69517;52.030;7.106;2023-12-22T11:48:20;99158.72;;;21.40;66.46
80198;BME280;69517;52.030;7.106;2023-12-22T11:50:47;99166.44;;;21.42;66.51
80198;BME280;69517;52.030;7.106;2023-12-22T11:53:20;99185.69;;;21.42;66.63
80198;BME280;69517;52.030;7.106;2023-12-22T11:55:57;99184.72;;;21.43;66.68
80198;BME280;69517;52.030;7.106;2023-12-22T11:58:35;99179.19;;;21.47;66.66
80198;BME280;69517;52.030;7.106;2023-12-22T12:01:02;99168.69;;;21.47;66.82
80198;BME280;69517;52.030;7.106;2023-12-22T12:03:31;99158.16;;;21.47;66.55
80198;BME280;69517;52.030;7.106;2023-12-22T12:06:10;99144.00;;;21.48;66.59
80198;BME280;69517;52.030;7.106;2023-12-22T12:08:36;99137.25;;;21.45;66.60
80198;BME280;69517;52.030;7.106;2023-12-22T12:11:03;99132.13;;;21.43;66.80
80198;BME280;69517;52.030;7.106;2023-12-22T12:13:30;99119.13;;;21.42;66.37
80198;BME280;69517;52.030;7.106;2023-12-22T12:15:58;99108.59;;;21.42;66.28
80198;BME280;69517;52.030;7.106;2023-12-22T12:18:27;99103.22;;;21.43;66.33
80198;BME280;69517;52.030;7.106;2023-12-22T12:20:54;99109.44;;;21.42;66.37
80198;BME280;69517;52.030;7.106;2023-12-22T12:23:22;99109.44;;;21.42;66.43
80198;BME280;69517;52.030;7.106;2023-12-22T12:25:49;99111.25;;;21.42;66.40
80198;BME280;69517;52.030;7.106;2023-12-22T12:28:16;99113.88;;;21.42;66.38
80198;BME280;69517;52.030;7.106;2023-12-22T12:30:43;99085.91;;;21.41;66.40
80198;BME280;69517;52.030;7.106;2023-12-22T12:33:10;99085.13;;;21.40;66.50
80198;BME280;69517;52.030;7.106;2023-12-22T12:35:37;99090.38;;;21.40;66.45
80198;BME280;69517;52.030;7.106;2023-12-22T12:38:05;99111.41;;;21.40;66.61
80198;BME280;69517;52.030;7.106;2023-12-22T12:40:32;99101.84;;;21.39;66.59
80198;BME280;69517;52.030;7.106;2023-12-22T12:43:00;99093.97;;;21.39;66.78
80198;BME280;69517;52.030;7.106;2023-12-22T12:45:27;99072.94;;;21.39;66.74
80198;BME280;69517;52.030;7.106;2023-12-22T12:47:56;99075.56;;;21.39;66.71
80198;BME280;69517;52.030;7.106;2023-12-22T12:50:23;99085.13;;;21.40;66.68
80198;BME280;69517;52.030;7.106;2023-12-22T12:52:49;99077.88;;;21.42;66.82
80198;BME280;69517;52.030;7.106;2023-12-22T12:55:18;99090.75;;;21.45;66.50
80198;BME280;69517;52.030;7.106;2023-12-22T12:57:44;99079.28;;;21.47;66.63